createdAt,value
2019-05-06T00:00:59.181Z,84.73
2019-05-06T00:01:54.862Z,84.42
2019-05-06T00:02:54.499Z,84.31
2019-05-06T00:03:54.274Z,84.98
2019-05-06T00:04:54.198Z,84.77
2019-05-06T00:05:54.283Z,85.39
2019-05-06T00:06:54.767Z,85.71
2019-05-06T00:07:54.447Z,85.50
2019-05-06T00:08:54.577Z,86.12
2019-05-06T00:09:54.014Z,85.95
2019-05-06T00:10:54.280Z,86.16
2019-05-06T00:11:54.459Z,86.47
2019-05-06T00:12:53.658Z,86.57
2019-05-06T00:13:54.325Z,86.99
2019-05-06T00:14:54.197Z,87.09
2019-05-06T00:15:54.409Z,86.99
2019-05-06T00:16:55.074Z,86.57
2019-05-06T00:17:54.037Z,86.68
2019-05-06T00:18:54.172Z,86.51
2019-05-06T00:19:54.358Z,87.82
2019-05-06T00:20:57.179Z,87.76
2019-05-06T00:21:54.031Z,88.17
2019-05-06T00:22:54.578Z,87.86
2019-05-06T00:23:54.702Z,87.69
2019-05-06T00:24:54.736Z,88.28
2019-05-06T00:25:53.597Z,88.17
2019-05-06T00:26:57.202Z,88.28
2019-05-06T00:27:54.447Z,87.96
2019-05-06T00:28:53.929Z,87.79
2019-05-06T00:29:54.945Z,88.17
2019-05-06T00:30:55.850Z,88.73
2019-05-06T00:31:54.402Z,89.77
2019-05-06T00:32:53.898Z,88.94
2019-05-06T00:33:54.035Z,89.67
2019-05-06T00:34:54.667Z,89.46
2019-05-06T00:35:53.834Z,89.60
2019-05-06T00:36:54.509Z,89.60
2019-05-06T00:37:53.690Z,89.29
2019-05-06T00:38:53.949Z,89.70
2019-05-06T00:39:53.932Z,89.18
2019-05-06T00:40:54.319Z,89.81
2019-05-06T00:41:54.188Z,89.85
2019-05-06T00:42:54.236Z,91.31
2019-05-06T00:43:54.597Z,91.20
2019-05-06T00:44:53.716Z,91.20
2019-05-06T00:45:53.762Z,91.00
2019-05-06T00:46:54.603Z,91.20
2019-05-06T00:47:53.631Z,91.25
2019-05-06T00:48:54.284Z,90.56
2019-05-06T00:49:54.608Z,90.97
2019-05-06T00:50:53.649Z,91.64
2019-05-06T00:51:55.030Z,92.47
2019-05-06T00:52:53.947Z,93.48
2019-05-06T00:53:54.386Z,93.99
2019-05-06T00:54:54.656Z,93.68
2019-05-06T00:55:53.826Z,93.48
2019-05-06T00:56:54.121Z,93.68
2019-05-06T00:57:54.496Z,93.89
2019-05-06T00:58:54.416Z,93.48
2019-05-06T00:59:53.880Z,93.79
2019-05-06T01:00:53.800Z,93.68
2019-05-06T01:01:53.865Z,93.73
2019-05-06T01:02:54.245Z,93.66
2019-05-06T01:03:53.706Z,94.08
2019-05-06T01:04:54.159Z,94.08
2019-05-06T01:05:54.214Z,95.08
2019-05-06T01:06:54.524Z,94.98
2019-05-06T01:07:54.904Z,95.18
2019-05-06T01:08:54.436Z,95.70
2019-05-06T01:09:54.165Z,95.60
2019-05-06T01:10:54.421Z,95.76
2019-05-06T01:11:54.184Z,95.45
2019-05-06T01:12:54.445Z,95.25
2019-05-06T01:13:54.491Z,95.35
2019-05-06T01:14:54.530Z,94.76
2019-05-06T01:15:54.711Z,94.87
2019-05-06T01:16:54.757Z,95.35
2019-05-06T01:17:53.841Z,95.08
2019-05-06T01:18:54.163Z,95.45
2019-05-06T01:19:54.132Z,95.45
2019-05-06T01:20:54.138Z,94.93
2019-05-06T01:21:53.997Z,94.93
2019-05-06T01:22:54.429Z,94.98
2019-05-06T01:23:54.486Z,95.56
2019-05-06T01:24:52.832Z,95.25
2019-05-06T01:25:54.583Z,94.87
2019-05-06T01:26:53.669Z,95.08
2019-05-06T01:27:54.013Z,94.66
2019-05-06T01:28:54.531Z,94.98
2019-05-06T01:29:54.441Z,95.66
2019-05-06T01:30:53.545Z,95.56
2019-05-06T01:31:54.389Z,95.35
2019-05-06T01:32:54.365Z,95.66
2019-05-06T01:33:53.634Z,95.66
2019-05-06T01:34:53.743Z,95.76
2019-05-06T01:35:54.163Z,95.66
2019-05-06T01:36:54.577Z,95.35
2019-05-06T01:37:54.570Z,95.66
2019-05-06T01:38:53.530Z,95.45
2019-05-06T01:39:54.192Z,95.45
2019-05-06T01:40:54.602Z,95.03
2019-05-06T01:41:53.679Z,95.35
2019-05-06T01:42:54.078Z,95.25
2019-05-06T01:43:54.504Z,95.66
2019-05-06T01:44:53.854Z,95.66
2019-05-06T01:45:53.708Z,95.56
2019-05-06T01:46:54.180Z,95.45
2019-05-06T01:47:54.407Z,95.66
2019-05-06T01:48:53.609Z,95.56
2019-05-06T01:49:53.795Z,95.66
2019-05-06T01:50:54.023Z,95.76
2019-05-06T01:51:54.516Z,95.66
2019-05-06T01:52:53.981Z,95.56
2019-05-06T01:53:54.472Z,94.82
2019-05-06T01:54:54.200Z,95.56
2019-05-06T01:55:54.470Z,95.76
2019-05-06T01:56:53.786Z,95.76
2019-05-06T01:57:54.451Z,95.76
2019-05-06T01:58:53.583Z,95.97
2019-05-06T01:59:54.011Z,95.56
2019-05-06T02:00:54.458Z,95.35
2019-05-06T02:01:59.219Z,95.35
2019-05-06T02:02:54.771Z,95.35
2019-05-06T02:03:53.792Z,94.93
2019-05-06T02:04:54.102Z,94.51
2019-05-06T02:05:53.996Z,94.76
2019-05-06T02:06:54.356Z,94.76
2019-05-06T02:07:54.896Z,94.76
2019-05-06T02:08:54.006Z,94.76
2019-05-06T02:09:54.286Z,94.98
2019-05-06T02:10:54.397Z,95.02
2019-05-06T02:11:53.622Z,95.50
2019-05-06T02:12:54.097Z,95.50
2019-05-06T02:13:53.789Z,95.39
2019-05-06T02:14:54.196Z,95.60
2019-05-06T02:15:54.601Z,95.39
2019-05-06T02:16:54.351Z,95.50
2019-05-06T02:17:52.282Z,95.60
2019-05-06T02:18:54.036Z,95.23
2019-05-06T02:19:54.452Z,95.33
2019-05-06T02:20:53.808Z,95.70
2019-05-06T02:21:54.107Z,95.70
2019-05-06T02:22:53.847Z,95.39
2019-05-06T02:23:53.532Z,95.02
2019-05-06T02:24:53.598Z,95.18
2019-05-06T02:25:53.986Z,94.56
2019-05-06T02:26:53.733Z,95.54
2019-05-06T02:27:54.170Z,95.29
2019-05-06T02:28:54.043Z,95.33
2019-05-06T02:29:54.192Z,95.29
2019-05-06T02:30:54.530Z,95.39
2019-05-06T02:31:54.614Z,95.91
2019-05-06T02:32:55.409Z,95.85
2019-05-06T02:33:55.475Z,95.50
2019-05-06T02:34:54.561Z,95.39
2019-05-06T02:35:54.884Z,95.25
2019-05-06T02:36:54.943Z,95.18
2019-05-06T02:37:54.766Z,94.93
2019-05-06T02:38:55.495Z,95.29
2019-05-06T02:39:53.290Z,95.08
2019-05-06T02:40:53.559Z,95.08
2019-05-06T02:41:54.583Z,95.39
2019-05-06T02:42:54.604Z,95.29
2019-05-06T02:43:54.188Z,94.87
2019-05-06T02:44:54.166Z,94.56
2019-05-06T02:45:53.144Z,94.98
2019-05-06T02:46:53.357Z,95.25
2019-05-06T02:47:53.740Z,94.51
2019-05-06T02:48:54.259Z,94.93
2019-05-06T02:49:53.432Z,94.76
2019-05-06T02:50:53.739Z,94.82
2019-05-06T02:51:53.567Z,94.51
2019-05-06T02:52:53.809Z,95.45
2019-05-06T02:53:53.797Z,95.14
2019-05-06T02:54:53.751Z,95.35
2019-05-06T02:55:53.168Z,94.78
2019-05-06T02:56:53.210Z,94.89
2019-05-06T02:57:53.639Z,94.47
2019-05-06T02:58:53.512Z,94.57
2019-05-06T02:59:55.365Z,94.47
2019-05-06T03:00:53.869Z,94.06
2019-05-06T03:01:53.779Z,94.68
2019-05-06T03:02:54.208Z,94.47
2019-05-06T03:03:53.587Z,94.89
2019-05-06T03:04:52.922Z,94.37
2019-05-06T03:05:53.283Z,94.37
2019-05-06T03:06:53.266Z,94.16
2019-05-06T03:07:57.038Z,94.22
2019-05-06T03:08:54.098Z,94.12
2019-05-06T03:09:53.219Z,93.91
2019-05-06T03:10:53.409Z,93.95
2019-05-06T03:11:53.932Z,93.91
2019-05-06T03:12:53.721Z,94.16
2019-05-06T03:13:53.750Z,94.26
2019-05-06T03:14:53.307Z,94.26
2019-05-06T03:15:54.047Z,94.26
2019-05-06T03:16:53.849Z,94.01
2019-05-06T03:17:55.088Z,93.80
2019-05-06T03:18:53.174Z,94.12
2019-05-06T03:19:52.733Z,93.80
2019-05-06T03:20:53.289Z,93.91
2019-05-06T03:21:54.068Z,93.80
2019-05-06T03:22:54.351Z,93.91
2019-05-06T03:23:54.234Z,93.70
2019-05-06T03:24:54.208Z,94.01
2019-05-06T03:25:53.309Z,93.60
2019-05-06T03:26:53.374Z,94.32
2019-05-06T03:27:53.202Z,93.60
2019-05-06T03:28:53.547Z,93.70
2019-05-06T03:29:53.694Z,93.60
2019-05-06T03:30:55.847Z,93.80
2019-05-06T03:31:56.299Z,93.80
2019-05-06T03:33:23.405Z,94.12
2019-05-06T03:34:16.080Z,94.01
2019-05-06T03:35:15.950Z,94.22
2019-05-06T03:36:06.283Z,93.91
2019-05-06T03:36:56.204Z,93.49
2019-05-06T03:37:53.363Z,94.01
2019-05-06T03:38:53.578Z,93.70
2019-05-06T03:39:52.864Z,93.60
2019-05-06T03:40:53.815Z,93.74
2019-05-06T03:41:53.677Z,94.12
2019-05-06T03:42:53.879Z,94.22
2019-05-06T03:43:54.035Z,94.53
2019-05-06T03:44:53.266Z,94.53
2019-05-06T03:45:53.680Z,94.53
2019-05-06T03:46:53.904Z,93.91
2019-05-06T03:47:54.090Z,93.91
2019-05-06T03:48:53.045Z,94.01
2019-05-06T03:49:54.546Z,93.60
2019-05-06T03:50:55.468Z,93.70
2019-05-06T03:51:55.973Z,93.60
2019-05-06T03:52:56.050Z,94.12
2019-05-06T03:53:54.030Z,94.43
2019-05-06T03:54:53.599Z,94.53
2019-05-06T03:55:53.738Z,93.91
2019-05-06T03:56:53.730Z,94.43
2019-05-06T03:57:53.899Z,94.43
2019-05-06T03:58:53.643Z,93.91
2019-05-06T03:59:52.887Z,94.22
2019-05-06T04:00:53.133Z,94.53
2019-05-06T04:01:53.432Z,93.91
2019-05-06T04:02:53.624Z,94.22
2019-05-06T04:03:53.704Z,94.43
2019-05-06T04:04:55.890Z,94.43
2019-05-06T04:05:52.526Z,94.53
2019-05-06T04:06:53.811Z,94.12
2019-05-06T04:07:52.997Z,94.53
2019-05-06T04:08:52.870Z,94.07
2019-05-06T04:09:53.567Z,94.49
2019-05-06T04:10:53.763Z,94.07
2019-05-06T04:11:53.900Z,94.28
2019-05-06T04:12:53.634Z,93.55
2019-05-06T04:13:53.419Z,93.62
2019-05-06T04:14:53.951Z,93.51
2019-05-06T04:15:53.798Z,93.30
2019-05-06T04:16:53.196Z,93.30
2019-05-06T04:17:53.558Z,92.57
2019-05-06T04:18:53.895Z,92.47
2019-05-06T04:19:53.493Z,92.74
2019-05-06T04:20:53.146Z,92.22
2019-05-06T04:21:53.079Z,92.05
2019-05-06T04:22:53.118Z,91.70
2019-05-06T04:23:53.426Z,91.18
2019-05-06T04:24:53.686Z,91.28
2019-05-06T04:25:52.742Z,91.49
2019-05-06T04:26:53.422Z,91.60
2019-05-06T04:27:53.483Z,91.49
2019-05-06T04:28:53.395Z,91.60
2019-05-06T04:29:50.892Z,91.08
2019-05-06T04:30:50.905Z,91.39
2019-05-06T04:31:53.704Z,90.62
2019-05-06T04:32:53.163Z,90.77
2019-05-06T04:34:08.691Z,90.97
2019-05-06T04:34:53.508Z,91.08
2019-05-06T04:35:53.791Z,91.35
2019-05-06T04:36:53.363Z,91.39
2019-05-06T04:37:53.531Z,91.45
2019-05-06T04:38:53.681Z,91.03
2019-05-06T04:39:53.169Z,90.93
2019-05-06T04:40:53.532Z,91.03
2019-05-06T04:41:53.617Z,89.69
2019-05-06T04:42:52.812Z,90.00
2019-05-06T04:43:53.136Z,89.48
2019-05-06T04:44:53.137Z,89.65
2019-05-06T04:45:53.715Z,89.17
2019-05-06T04:46:54.079Z,88.92
2019-05-06T04:47:53.499Z,89.54
2019-05-06T04:48:53.587Z,88.92
2019-05-06T04:49:53.254Z,88.78
2019-05-06T04:50:53.346Z,88.92
2019-05-06T04:51:53.849Z,88.46
2019-05-06T04:52:53.511Z,88.57
2019-05-06T04:53:53.420Z,88.36
2019-05-06T04:54:53.197Z,88.15
2019-05-06T04:55:53.652Z,88.15
2019-05-06T04:56:53.543Z,87.74
2019-05-06T04:57:53.444Z,87.74
2019-05-06T04:58:53.563Z,88.26
2019-05-06T04:59:50.575Z,87.80
2019-05-06T05:00:53.073Z,87.01
2019-05-06T05:01:53.196Z,86.97
2019-05-06T05:02:50.546Z,86.97
2019-05-06T05:03:53.556Z,86.76
2019-05-06T05:04:52.827Z,86.76
2019-05-06T05:05:53.066Z,87.07
2019-05-06T05:06:52.418Z,86.97
2019-05-06T05:07:52.839Z,87.01
2019-05-06T05:08:53.027Z,86.80
2019-05-06T05:09:50.469Z,87.12
2019-05-06T05:10:52.836Z,86.97
2019-05-06T05:11:53.015Z,86.52
2019-05-06T05:12:52.555Z,86.41
2019-05-06T05:13:52.971Z,86.35
2019-05-06T05:14:51.971Z,86.60
2019-05-06T05:15:52.418Z,86.91
2019-05-06T05:16:50.419Z,87.12
2019-05-06T05:17:52.497Z,87.12
2019-05-06T05:18:50.361Z,87.37
2019-05-06T05:19:52.267Z,87.05
2019-05-06T05:20:50.339Z,87.26
2019-05-06T05:21:52.196Z,87.47
2019-05-06T05:22:50.327Z,88.40
2019-05-06T05:23:52.253Z,87.37
2019-05-06T05:24:52.164Z,86.85
2019-05-06T05:25:52.136Z,87.16
2019-05-06T05:26:52.191Z,87.05
2019-05-06T05:27:50.276Z,87.05
2019-05-06T05:28:50.293Z,87.04
2019-05-06T05:29:52.053Z,83.67
2019-05-06T05:30:52.071Z,79.32
2019-05-06T05:31:50.239Z,76.46
2019-05-06T05:32:52.031Z,72.24
2019-05-06T05:33:52.462Z,69.49
2019-05-06T05:34:52.110Z,69.97
2019-05-06T05:35:52.387Z,72.40
2019-05-06T05:36:51.968Z,75.81
2019-05-06T05:37:50.170Z,76.94
2019-05-06T05:38:52.258Z,77.46
2019-05-06T05:39:52.004Z,77.46
2019-05-06T05:40:52.224Z,78.56
2019-05-06T05:41:52.027Z,79.43
2019-05-06T05:42:52.099Z,79.67
2019-05-06T05:43:50.109Z,80.64
2019-05-06T05:44:50.095Z,81.26
2019-05-06T05:45:52.195Z,81.88
2019-05-06T05:46:51.912Z,81.77
2019-05-06T05:47:52.184Z,77.31
2019-05-06T05:48:51.995Z,72.09
2019-05-06T05:49:50.045Z,69.74
2019-05-06T05:50:51.963Z,64.45
2019-05-06T05:51:51.931Z,65.73
2019-05-06T05:52:51.942Z,60.49
2019-05-06T05:53:51.837Z,59.47
2019-05-06T05:54:52.240Z,61.21
2019-05-06T05:55:49.982Z,59.09
2019-05-06T05:56:49.996Z,61.10
2019-05-06T05:57:51.817Z,60.46
2019-05-06T05:58:49.953Z,60.14
2019-05-06T05:59:49.974Z,65.14
2019-05-06T06:00:51.995Z,66.09
2019-05-06T06:01:49.969Z,63.60
2019-05-06T06:02:52.859Z,66.25
2019-05-06T06:03:49.898Z,67.44
2019-05-06T06:04:54.822Z,69.05
2019-05-06T06:05:52.064Z,70.04
2019-05-06T06:06:51.851Z,71.82
2019-05-06T06:07:49.870Z,73.50
2019-05-06T06:08:52.110Z,73.33
2019-05-06T06:09:49.827Z,75.36
2019-05-06T06:10:52.226Z,76.39
2019-05-06T06:11:49.813Z,75.84
2019-05-06T06:12:49.816Z,75.94
2019-05-06T06:13:49.790Z,76.29
2019-05-06T06:14:52.526Z,75.26
2019-05-06T06:15:52.148Z,75.36
2019-05-06T06:16:49.755Z,76.21
2019-05-06T06:17:51.437Z,76.70
2019-05-06T06:18:49.745Z,76.49
2019-05-06T06:19:49.722Z,74.63
2019-05-06T06:20:49.717Z,75.87
2019-05-06T06:21:49.703Z,75.94
2019-05-06T06:22:52.146Z,75.98
2019-05-06T06:23:49.692Z,74.84
2019-05-06T06:24:49.677Z,76.18
2019-05-06T06:25:49.659Z,74.84
2019-05-06T06:26:49.650Z,75.15
2019-05-06T06:27:51.919Z,76.18
2019-05-06T06:28:49.627Z,75.26
2019-05-06T06:29:49.608Z,75.56
2019-05-06T06:30:49.607Z,75.46
2019-05-06T06:31:49.596Z,75.26
2019-05-06T06:32:49.641Z,74.74
2019-05-06T06:33:49.564Z,74.91
2019-05-06T06:34:51.994Z,73.78
2019-05-06T06:35:51.511Z,74.33
2019-05-06T06:36:49.548Z,74.29
2019-05-06T06:37:49.561Z,73.64
2019-05-06T06:38:49.525Z,74.29
2019-05-06T06:39:49.503Z,73.85
2019-05-06T06:40:49.526Z,73.40
2019-05-06T06:41:49.493Z,71.96
2019-05-06T06:42:49.483Z,71.96
2019-05-06T06:43:49.471Z,71.31
2019-05-06T06:44:49.464Z,71.62
2019-05-06T06:45:49.476Z,70.83
2019-05-06T06:46:49.444Z,71.86
2019-05-06T06:47:49.450Z,71.92
2019-05-06T06:48:49.419Z,71.62
2019-05-06T06:49:49.408Z,71.20
2019-05-06T06:50:49.397Z,72.03
2019-05-06T06:51:49.388Z,71.31
2019-05-06T06:52:49.403Z,72.24
2019-05-06T06:53:49.366Z,70.90
2019-05-06T06:54:49.357Z,71.24
2019-05-06T06:55:49.344Z,72.37
2019-05-06T06:57:03.210Z,72.03
2019-05-06T06:57:51.899Z,72.03
2019-05-06T06:58:49.317Z,70.69
2019-05-06T06:59:49.303Z,70.86
2019-05-06T07:00:49.294Z,71.07
2019-05-06T07:01:49.279Z,70.83
2019-05-06T07:02:49.307Z,70.97
2019-05-06T07:03:49.264Z,70.01
2019-05-06T07:04:49.248Z,71.14
2019-05-06T07:05:49.243Z,69.56
2019-05-06T07:06:49.235Z,68.40
2019-05-06T07:07:49.250Z,69.23
2019-05-06T07:08:49.207Z,69.32
2019-05-06T07:09:49.210Z,67.96
2019-05-06T07:10:49.183Z,67.35
2019-05-06T07:11:49.175Z,68.24
2019-05-06T07:12:49.189Z,67.32
2019-05-06T07:13:49.155Z,66.80
2019-05-06T07:14:49.151Z,67.96
2019-05-06T07:15:49.135Z,68.40
2019-05-06T07:16:49.123Z,68.24
2019-05-06T07:17:49.130Z,67.38
2019-05-06T07:18:49.097Z,66.63
2019-05-06T07:19:49.085Z,65.51
2019-05-06T07:20:49.071Z,66.67
2019-05-06T07:21:49.063Z,66.43
2019-05-06T07:22:49.080Z,66.22
2019-05-06T07:23:49.048Z,65.17
2019-05-06T07:24:49.033Z,65.17
2019-05-06T07:25:49.021Z,64.56
2019-05-06T07:26:49.010Z,65.27
2019-05-06T07:27:49.024Z,65.34
2019-05-06T07:28:48.991Z,64.53
2019-05-06T07:29:48.988Z,64.32
2019-05-06T07:30:48.972Z,64.35
2019-05-06T07:31:48.985Z,63.40
2019-05-06T07:32:48.947Z,63.29
2019-05-06T07:33:48.939Z,62.58
2019-05-06T07:34:48.928Z,61.76
2019-05-06T07:35:48.915Z,63.26
2019-05-06T07:36:48.929Z,62.59
2019-05-06T07:37:48.892Z,60.62
2019-05-06T07:38:48.885Z,59.03
2019-05-06T07:39:48.877Z,58.91
2019-05-06T07:40:48.870Z,58.65
2019-05-06T07:41:48.884Z,57.70
2019-05-06T07:42:48.872Z,58.47
2019-05-06T07:43:48.833Z,56.43
2019-05-06T07:44:48.821Z,57.62
2019-05-06T07:45:48.812Z,57.73
2019-05-06T07:46:48.828Z,57.07
2019-05-06T07:47:48.793Z,57.27
2019-05-06T07:48:48.779Z,55.89
2019-05-06T07:49:48.770Z,55.43
2019-05-06T07:50:49.261Z,54.92
2019-05-06T07:51:48.767Z,55.48
2019-05-06T07:52:48.739Z,55.05
2019-05-06T07:53:48.721Z,55.61
2019-05-06T07:54:48.781Z,57.04
2019-05-06T07:55:48.700Z,55.94
2019-05-06T07:56:48.731Z,54.92
2019-05-06T07:57:50.584Z,54.21
2019-05-06T07:58:48.662Z,53.70
2019-05-06T07:59:48.668Z,54.00
2019-05-06T08:00:48.647Z,54.28
2019-05-06T08:01:48.683Z,54.08
2019-05-06T08:02:48.617Z,55.20
2019-05-06T08:03:48.633Z,55.87
2019-05-06T08:04:48.602Z,55.51
2019-05-06T08:05:55.723Z,55.00
2019-05-06T08:06:49.610Z,53.85
2019-05-06T08:07:48.580Z,52.37
2019-05-06T08:08:48.565Z,52.61
2019-05-06T08:09:48.556Z,52.73
2019-05-06T08:10:48.542Z,53.14
2019-05-06T08:11:48.534Z,54.64
2019-05-06T08:12:48.545Z,53.90
2019-05-06T08:13:48.524Z,52.58
2019-05-06T08:14:48.497Z,55.46
2019-05-06T08:15:48.493Z,55.51
2019-05-06T08:16:48.476Z,56.71
2019-05-06T08:17:48.492Z,57.93
2019-05-06T08:18:48.460Z,55.51
2019-05-06T08:19:48.448Z,55.28
2019-05-06T08:20:48.440Z,54.46
2019-05-06T08:21:48.423Z,53.57
2019-05-06T08:22:48.435Z,52.20
2019-05-06T08:23:48.407Z,50.93
2019-05-06T08:24:48.388Z,49.99
2019-05-06T08:25:48.376Z,52.08
2019-05-06T08:26:48.365Z,51.56
2019-05-06T08:27:49.609Z,51.49
2019-05-06T08:28:48.341Z,52.53
2019-05-06T08:29:48.338Z,52.43
2019-05-06T08:30:48.324Z,54.61
2019-05-06T08:31:48.325Z,54.28
2019-05-06T08:32:48.327Z,54.82
2019-05-06T08:33:48.291Z,55.74
2019-05-06T08:34:48.283Z,54.64
2019-05-06T08:35:48.268Z,54.87
2019-05-06T08:36:48.266Z,55.69
2019-05-06T08:37:48.278Z,56.48
2019-05-06T08:38:48.237Z,56.27
2019-05-06T08:39:48.231Z,55.20
2019-05-06T08:40:48.218Z,55.28
2019-05-06T08:41:48.206Z,55.28
2019-05-06T08:42:48.281Z,53.85
2019-05-06T08:43:48.184Z,55.18
2019-05-06T08:44:48.172Z,55.38
2019-05-06T08:45:48.165Z,54.97
2019-05-06T08:46:48.154Z,55.79
2019-05-06T08:47:48.170Z,55.41
2019-05-06T08:48:48.130Z,55.07
2019-05-06T08:49:49.381Z,52.53
2019-05-06T08:50:48.105Z,52.70
2019-05-06T08:51:48.098Z,55.38
2019-05-06T08:52:48.112Z,54.51
2019-05-06T08:53:48.075Z,53.47
2019-05-06T08:54:48.067Z,54.67
2019-05-06T08:55:48.051Z,54.51
2019-05-06T08:56:48.049Z,53.90
2019-05-06T08:57:48.072Z,51.86
2019-05-06T08:58:48.015Z,52.01
2019-05-06T08:59:48.005Z,52.73
2019-05-06T09:00:48.010Z,51.38
2019-05-06T09:01:47.991Z,51.69
2019-05-06T09:02:47.974Z,51.18
2019-05-06T09:03:47.996Z,52.96
2019-05-06T09:04:47.953Z,53.27
2019-05-06T09:05:47.943Z,52.70
2019-05-06T09:06:47.936Z,51.64
2019-05-06T09:07:47.913Z,49.48
2019-05-06T09:08:47.973Z,49.70
2019-05-06T09:09:47.899Z,50.62
2019-05-06T09:10:47.887Z,48.64
2019-05-06T09:11:47.916Z,45.43
2019-05-06T09:12:47.860Z,46.69
2019-05-06T09:13:47.965Z,44.20
2019-05-06T09:14:47.843Z,45.64
2019-05-06T09:15:47.824Z,45.51
2019-05-06T09:16:50.659Z,45.67
2019-05-06T09:17:48.815Z,44.06
2019-05-06T09:18:47.839Z,43.52
2019-05-06T09:19:47.797Z,45.17
2019-05-06T09:20:47.776Z,43.26
2019-05-06T09:21:47.772Z,42.25
2019-05-06T09:22:47.765Z,43.10
2019-05-06T09:23:47.781Z,39.50
2019-05-06T09:24:47.743Z,39.26
2019-05-06T09:25:47.728Z,41.03
2019-05-06T09:26:47.718Z,45.52
2019-05-06T09:27:47.715Z,45.93
2019-05-06T09:28:47.710Z,47.05
2019-05-06T09:29:47.692Z,47.58
2019-05-06T09:30:47.679Z,47.47
2019-05-06T09:31:47.671Z,47.39
2019-05-06T09:32:47.657Z,48.25
2019-05-06T09:33:47.674Z,44.32
2019-05-06T09:34:47.633Z,46.94
2019-05-06T09:35:47.624Z,44.30
2019-05-06T09:36:52.006Z,42.82
2019-05-06T09:37:48.599Z,43.49
2019-05-06T09:38:47.648Z,42.15
2019-05-06T09:39:47.592Z,43.52
2019-05-06T09:40:47.571Z,40.59
2019-05-06T09:41:48.954Z,39.22
2019-05-06T09:42:47.550Z,38.82
2019-05-06T09:43:47.562Z,40.15
2019-05-06T09:44:50.403Z,38.78
2019-05-06T09:45:47.520Z,39.06
2019-05-06T09:46:47.511Z,38.12
2019-05-06T09:47:47.498Z,37.19
2019-05-06T09:48:47.510Z,35.95
2019-05-06T09:49:47.503Z,35.93
2019-05-06T09:50:47.472Z,36.02
2019-05-06T09:51:47.456Z,35.58
2019-05-06T09:52:47.448Z,35.08
2019-05-06T09:53:47.436Z,34.89
2019-05-06T09:54:47.453Z,38.02
2019-05-06T09:55:47.417Z,42.21
2019-05-06T09:56:47.404Z,42.63
2019-05-06T09:57:47.396Z,40.05
2019-05-06T09:58:47.391Z,38.39
2019-05-06T09:59:47.398Z,37.23
2019-05-06T10:00:47.363Z,36.61
2019-05-06T10:01:47.358Z,37.84
2019-05-06T10:02:49.494Z,35.97
2019-05-06T10:03:47.336Z,39.46
2019-05-06T10:04:47.349Z,40.49
2019-05-06T10:05:47.316Z,40.19
2019-05-06T10:06:56.355Z,40.19
2019-05-06T10:07:48.292Z,40.00
2019-05-06T10:08:47.284Z,43.43
2019-05-06T10:09:47.299Z,44.73
2019-05-06T10:10:56.823Z,45.97
2019-05-06T10:11:48.253Z,44.32
2019-05-06T10:12:47.240Z,44.06
2019-05-06T10:13:47.235Z,43.41
2019-05-06T10:14:47.244Z,43.16
2019-05-06T10:15:47.212Z,42.15
2019-05-06T10:16:47.203Z,39.08
2019-05-06T10:17:47.191Z,38.26
2019-05-06T10:18:47.179Z,40.09
2019-05-06T10:19:47.192Z,40.39
2019-05-06T10:20:47.155Z,40.11
2019-05-06T10:21:47.152Z,41.02
2019-05-06T10:22:47.140Z,40.45
2019-05-06T10:23:47.122Z,39.56
2019-05-06T10:24:47.205Z,38.90
2019-05-06T10:25:47.112Z,36.59
2019-05-06T10:26:47.094Z,35.57
2019-05-06T10:27:47.083Z,35.45
2019-05-06T10:28:47.070Z,37.53
2019-05-06T10:29:47.108Z,40.17
2019-05-06T10:30:47.063Z,40.39
2019-05-06T10:31:47.033Z,42.61
2019-05-06T10:32:47.035Z,45.68
2019-05-06T10:33:47.023Z,44.32
2019-05-06T10:34:47.041Z,44.97
2019-05-06T10:35:46.999Z,45.81
2019-05-06T10:36:46.992Z,47.11
2019-05-06T10:37:46.979Z,48.15
2019-05-06T10:38:46.966Z,47.26
2019-05-06T10:39:46.998Z,48.89
2019-05-06T10:40:59.655Z,47.54
2019-05-06T10:41:47.960Z,47.13
2019-05-06T10:42:46.936Z,46.09
2019-05-06T10:43:46.935Z,45.44
2019-05-06T10:44:46.922Z,44.28
2019-05-06T10:45:46.958Z,43.87
2019-05-06T10:46:46.883Z,43.73
2019-05-06T10:47:46.911Z,43.59
2019-05-06T10:48:46.872Z,43.69
2019-05-06T10:49:46.860Z,43.10
2019-05-06T10:50:46.866Z,43.55
2019-05-06T10:51:46.908Z,44.75
2019-05-06T10:52:46.918Z,47.74
2019-05-06T10:53:46.911Z,45.01
2019-05-06T10:54:47.325Z,45.63
2019-05-06T10:55:46.846Z,44.60
2019-05-06T10:56:53.828Z,41.46
2019-05-06T10:57:47.768Z,39.92
2019-05-06T10:58:46.759Z,40.41
2019-05-06T10:59:46.756Z,39.64
2019-05-06T11:00:46.779Z,41.42
2019-05-06T11:01:47.331Z,40.85
2019-05-06T11:02:46.718Z,40.77
2019-05-06T11:03:46.706Z,39.64
2019-05-06T11:04:46.694Z,38.35
2019-05-06T11:05:46.710Z,36.66
2019-05-06T11:06:46.683Z,34.59
2019-05-06T11:07:46.666Z,35.16
2019-05-06T11:08:46.659Z,33.84
2019-05-06T11:09:46.644Z,30.82
2019-05-06T11:10:46.663Z,30.28
2019-05-06T11:11:46.626Z,32.46
2019-05-06T11:12:46.627Z,30.19
2019-05-06T11:13:46.601Z,30.28
2019-05-06T11:14:46.598Z,30.43
2019-05-06T11:15:46.607Z,30.18
2019-05-06T11:16:46.571Z,29.19
2019-05-06T11:17:46.561Z,31.23
2019-05-06T11:18:46.552Z,32.57
2019-05-06T11:19:46.546Z,35.26
2019-05-06T11:20:46.561Z,39.76
2019-05-06T11:21:46.521Z,39.58
2019-05-06T11:22:46.511Z,36.00
2019-05-06T11:23:46.504Z,38.07
2019-05-06T11:24:46.496Z,38.88
2019-05-06T11:25:46.613Z,40.00
2019-05-06T11:26:46.484Z,40.14
2019-05-06T11:27:46.459Z,40.36
2019-05-06T11:28:46.450Z,42.29
2019-05-06T11:29:46.432Z,42.74
2019-05-06T11:30:46.466Z,43.35
2019-05-06T11:31:46.415Z,42.83
2019-05-06T11:32:46.407Z,43.43
2019-05-06T11:33:46.396Z,43.71
2019-05-06T11:34:46.382Z,42.69
2019-05-06T11:35:46.379Z,42.71
2019-05-06T11:36:46.389Z,43.20
2019-05-06T11:37:50.602Z,42.68
2019-05-06T11:38:48.564Z,42.35
2019-05-06T11:39:46.325Z,40.95
2019-05-06T11:40:46.318Z,41.74
2019-05-06T11:42:05.274Z,40.20
2019-05-06T11:42:47.303Z,39.78
2019-05-06T11:43:46.291Z,38.64
2019-05-06T11:44:46.295Z,40.14
2019-05-06T11:45:46.266Z,38.01
2019-05-06T11:46:46.287Z,40.65
2019-05-06T11:47:46.252Z,40.04
2019-05-06T11:48:46.239Z,39.55
2019-05-06T11:49:46.235Z,38.82
2019-05-06T11:50:46.216Z,39.51
2019-05-06T11:51:46.241Z,37.71
2019-05-06T11:52:46.200Z,39.65
2019-05-06T11:53:46.189Z,40.91
2019-05-06T11:54:46.175Z,41.70
2019-05-06T11:55:46.169Z,39.96
2019-05-06T11:56:50.871Z,41.31
2019-05-06T11:57:47.150Z,41.11
2019-05-06T11:58:46.141Z,40.69
2019-05-06T11:59:46.128Z,39.57
2019-05-06T12:00:46.111Z,39.26
2019-05-06T12:01:46.138Z,37.89
2019-05-06T12:02:48.642Z,36.22
2019-05-06T12:03:46.085Z,34.81
2019-05-06T12:04:46.079Z,34.17
2019-05-06T12:05:46.058Z,32.89
2019-05-06T12:06:46.077Z,32.49
2019-05-06T12:08:00.976Z,33.19
2019-05-06T12:08:47.029Z,34.23
2019-05-06T12:09:46.022Z,33.11
2019-05-06T12:10:46.016Z,34.54
2019-05-06T12:11:46.027Z,35.78
2019-05-06T12:12:45.993Z,34.74
2019-05-06T12:13:45.980Z,34.17
2019-05-06T12:14:45.969Z,33.55
2019-05-06T12:15:45.958Z,33.31
2019-05-06T12:16:45.987Z,35.77
2019-05-06T12:17:45.935Z,36.14
2019-05-06T12:18:45.929Z,37.98
2019-05-06T12:19:45.919Z,35.78
2019-05-06T12:20:45.904Z,38.25
2019-05-06T12:21:45.898Z,43.73
2019-05-06T12:22:45.913Z,40.85
2019-05-06T12:23:45.878Z,39.51
2019-05-06T12:24:45.871Z,38.68
2019-05-06T12:25:46.327Z,39.23
2019-05-06T12:26:45.845Z,38.62
2019-05-06T12:27:45.859Z,38.23
2019-05-06T12:28:45.810Z,39.23
2019-05-06T12:29:45.800Z,40.34
2019-05-06T12:30:45.793Z,39.67
2019-05-06T12:31:45.775Z,39.28
2019-05-06T12:32:45.801Z,40.00
2019-05-06T12:33:45.762Z,39.87
2019-05-06T12:34:45.759Z,39.57
2019-05-06T12:35:45.750Z,40.79
2019-05-06T12:36:45.739Z,39.18
2019-05-06T12:37:45.751Z,40.70
2019-05-06T12:38:45.718Z,42.45
2019-05-06T12:39:45.716Z,41.54
2019-05-06T12:40:45.706Z,41.42
2019-05-06T12:41:45.692Z,41.50
2019-05-06T12:42:45.711Z,41.19
2019-05-06T12:43:45.670Z,41.17
2019-05-06T12:44:45.681Z,40.08
2019-05-06T12:45:45.643Z,42.90
2019-05-06T12:46:45.634Z,40.67
2019-05-06T12:47:45.622Z,41.42
2019-05-06T12:48:45.635Z,41.26
2019-05-06T12:49:45.612Z,40.45
2019-05-06T12:50:45.597Z,40.73
2019-05-06T12:51:45.581Z,39.56
2019-05-06T12:52:45.577Z,41.42